Time;durP1;ratioP1;P1;durP2;ratioP2;P2;SDS_P1;SDS_P2;PMS_P1;PMS_P2;Temp;Humidity;BMP_temperature;BMP_pressure;BME280_temperature;BME280_humidity;BME280_pressure;Samples;Min_cycle;Max_cycle;Signal;HPM_P1;HPM_P2
2020/12/07 00:03:05;;;;;;;0.77;0.63;;;6.00;99.90;;;;;;5112097;28;20028;-55
2020/12/07 00:06:15;;;;;;;0.85;0.70;;;6.00;99.90;;;;;;5111764;28;20039;-56
2020/12/07 00:09:20;;;;;;;1.67;1.20;;;6.00;99.90;;;;;;5112416;28;20044;-58
2020/12/07 00:12:29;;;;;;;3.10;1.00;;;6.00;99.90;;;;;;5111596;28;20043;-58
2020/12/07 00:15:33;;;;;;;1.60;0.70;;;6.00;99.90;;;;;;5113766;27;20040;-54
2020/12/07 00:18:37;;;;;;;1.73;0.80;;;5.90;99.90;;;;;;5118698;27;20040;-53
2020/12/07 00:21:42;;;;;;;1.45;0.40;;;5.90;99.90;;;;;;5111661;28;20387;-59
2020/12/07 00:24:46;;;;;;;0.65;0.50;;;5.90;99.90;;;;;;5111718;28;20027;-58
2020/12/07 00:27:51;;;;;;;2.15;0.40;;;5.80;99.90;;;;;;5111504;28;20506;-54
2020/12/07 00:30:55;;;;;;;0.98;0.60;;;5.80;99.90;;;;;;5111627;28;20039;-53
2020/12/07 00:34:00;;;;;;;0.50;0.40;;;5.80;99.90;;;;;;5111726;28;20380;-56
2020/12/07 00:37:07;;;;;;;0.30;0.30;;;5.80;99.90;;;;;;5112485;27;20027;-57
2020/12/07 00:40:11;;;;;;;0.30;0.30;;;5.80;99.90;;;;;;5110994;28;20028;-55
2020/12/07 00:43:16;;;;;;;0.77;0.50;;;5.70;99.90;;;;;;5110575;28;20040;-53
2020/12/07 00:46:20;;;;;;;1.27;0.47;;;5.80;99.90;;;;;;5125079;27;20027;-54
2020/12/07 00:49:24;;;;;;;1.08;0.43;;;5.80;99.90;;;;;;5120813;27;20051;-58
2020/12/07 00:52:29;;;;;;;1.33;0.40;;;5.80;99.90;;;;;;5111127;27;20501;-57
2020/12/07 00:55:33;;;;;;;1.23;0.50;;;5.80;99.90;;;;;;5109728;28;20043;-59
2020/12/07 00:58:38;;;;;;;1.42;0.55;;;5.80;99.90;;;;;;5110231;28;20083;-57
2020/12/07 01:01:43;;;;;;;1.15;0.32;;;5.90;99.90;;;;;;5124067;27;20524;-57
2020/12/07 01:04:49;;;;;;;1.20;0.40;;;5.80;99.90;;;;;;5110020;28;20171;-57
2020/12/07 01:07:54;;;;;;;0.60;0.30;;;5.80;99.90;;;;;;5111020;28;20466;-55
2020/12/07 01:10:59;;;;;;;2.85;0.40;;;5.80;99.90;;;;;;5110520;28;20028;-57
2020/12/07 01:14:06;;;;;;;1.23;0.50;;;5.70;99.90;;;;;;5109882;28;20024;-55
2020/12/07 01:17:12;;;;;;;3.22;0.50;;;5.70;99.90;;;;;;5121608;27;20051;-54
2020/12/07 01:20:16;;;;;;;1.70;0.50;;;5.80;99.90;;;;;;5110222;28;20031;-54
2020/12/07 01:23:40;;;;;;;1.13;0.40;;;5.70;99.90;;;;;;5109752;28;20040;-54
2020/12/07 01:26:44;;;;;;;1.48;0.30;;;5.70;99.90;;;;;;5109192;28;20052;-53
2020/12/07 01:29:49;;;;;;;1.17;0.50;;;5.70;99.90;;;;;;5109787;28;20482;-54
2020/12/07 01:32:54;;;;;;;2.72;0.50;;;5.70;99.90;;;;;;5109510;28;20043;-56
2020/12/07 01:35:59;;;;;;;1.45;0.40;;;5.70;99.90;;;;;;5112098;27;21019;-58
2020/12/07 01:39:03;;;;;;;2.22;0.60;;;5.60;99.90;;;;;;5115968;27;20036;-57
2020/12/07 01:42:09;;;;;;;1.13;0.68;;;5.50;99.90;;;;;;5108873;28;20040;-56
2020/12/07 01:45:13;;;;;;;1.15;0.73;;;5.30;99.90;;;;;;5114057;27;20031;-54
2020/12/07 01:48:18;;;;;;;0.50;0.40;;;5.20;99.90;;;;;;5118272;27;20035;-53
2020/12/07 01:51:23;;;;;;;1.05;0.50;;;5.10;99.90;;;;;;5116078;27;20044;-55
2020/12/07 01:54:27;;;;;;;0.32;0.30;;;5.00;99.90;;;;;;5109284;28;20044;-56
2020/12/07 01:57:31;;;;;;;2.55;0.95;;;4.90;99.90;;;;;;5109832;28;20030;-58
2020/12/07 02:00:39;;;;;;;3.85;1.40;;;4.80;99.90;;;;;;5109458;28;20065;-57
2020/12/07 02:03:49;;;;;;;1.13;0.80;;;4.90;99.90;;;;;;5109681;28;20039;-52
2020/12/07 02:06:53;;;;;;;1.67;0.70;;;4.90;99.90;;;;;;5108859;28;20382;-56
2020/12/07 02:09:58;;;;;;;0.80;0.40;;;5.00;99.90;;;;;;5109371;28;20039;-57
2020/12/07 02:13:03;;;;;;;1.27;0.50;;;5.00;99.90;;;;;;5110221;28;20395;-57
2020/12/07 02:16:07;;;;;;;4.63;1.00;;;5.00;99.90;;;;;;5109457;28;20036;-53
2020/12/07 02:19:24;;;;;;;3.55;0.80;;;4.90;99.90;;;;;;5108987;28;20186;-58
2020/12/07 02:22:28;;;;;;;2.70;0.60;;;4.80;99.90;;;;;;5110049;28;20035;-53
2020/12/07 02:26:04;;;;;;;1.00;0.40;;;4.70;99.90;;;;;;5109615;28;20493;-57
2020/12/07 02:29:09;;;;;;;2.65;0.63;;;4.50;99.90;;;;;;5108924;28;20039;-53
2020/12/07 02:32:21;;;;;;;2.10;1.42;;;4.50;99.90;;;;;;5108898;28;20039;-55
2020/12/07 02:35:40;;;;;;;1.33;0.60;;;4.50;99.90;;;;;;5109120;28;20036;-57
2020/12/07 02:38:45;;;;;;;1.67;0.60;;;4.50;99.90;;;;;;5112838;28;20403;-58
2020/12/07 02:41:50;;;;;;;2.63;0.63;;;4.50;99.90;;;;;;5108557;28;20043;-54
2020/12/07 02:44:55;;;;;;;0.80;0.40;;;4.50;99.90;;;;;;5110694;28;20024;-54
2020/12/07 02:48:02;;;;;;;1.55;0.75;;;4.50;99.90;;;;;;5114881;28;20028;-59
2020/12/07 02:51:09;;;;;;;2.42;0.80;;;4.40;99.90;;;;;;5108139;28;20036;-55
2020/12/07 02:54:13;;;;;;;0.80;0.50;;;4.40;99.90;;;;;;5108931;28;20036;-56
2020/12/07 02:57:18;;;;;;;2.72;1.17;;;4.30;99.90;;;;;;5122513;28;20051;-52
2020/12/07 03:00:26;;;;;;;3.88;2.70;;;4.40;99.90;;;;;;5108004;28;20427;-54
2020/12/07 03:03:32;;;;;;;6.45;4.00;;;4.30;99.90;;;;;;5108481;28;20032;-55
2020/12/07 03:06:36;;;;;;;7.13;5.75;;;4.20;99.90;;;;;;5109769;28;20511;-58
2020/12/07 03:09:41;;;;;;;2.95;2.33;;;4.20;99.90;;;;;;5113017;28;20043;-55
2020/12/07 03:12:45;;;;;;;2.65;0.75;;;4.10;99.90;;;;;;5112455;28;20044;-53
2020/12/07 03:15:53;;;;;;;3.30;1.48;;;4.00;99.90;;;;;;5114856;27;20076;-55
2020/12/07 03:19:01;;;;;;;2.88;0.80;;;4.00;99.90;;;;;;5120754;27;20035;-58
2020/12/07 03:22:06;;;;;;;1.42;0.70;;;3.90;99.90;;;;;;5126047;27;20035;-54
2020/12/07 03:25:10;;;;;;;2.08;1.00;;;4.00;99.90;;;;;;5112324;27;20027;-54
2020/12/07 03:28:19;;;;;;;4.13;1.27;;;3.90;99.90;;;;;;5126554;27;20039;-56
2020/12/07 03:31:23;;;;;;;1.33;1.02;;;4.00;99.90;;;;;;5123002;27;20039;-52
2020/12/07 03:34:29;;;;;;;1.50;0.90;;;4.20;99.90;;;;;;5132471;27;20039;-54
2020/12/07 03:37:34;;;;;;;5.88;1.00;;;4.20;99.90;;;;;;5126258;27;20379;-57
2020/12/07 03:40:41;;;;;;;1.05;0.60;;;4.30;99.90;;;;;;5110929;28;20031;-57
2020/12/07 03:43:55;;;;;;;2.20;0.85;;;4.40;99.90;;;;;;5111829;28;20509;-58
2020/12/07 03:47:03;;;;;;;1.88;1.00;;;4.30;99.90;;;;;;5111379;28;20031;-55
2020/12/07 03:50:08;;;;;;;3.13;0.68;;;4.50;99.90;;;;;;5119083;27;20039;-54
2020/12/07 03:53:16;;;;;;;1.20;0.65;;;4.50;99.90;;;;;;5120558;27;20497;-57
2020/12/07 03:56:21;;;;;;;1.25;0.70;;;4.60;99.90;;;;;;5111318;28;20518;-54
2020/12/07 03:59:25;;;;;;;3.67;0.70;;;4.60;99.90;;;;;;5110749;28;20039;-58
2020/12/07 04:02:30;;;;;;;3.70;0.80;;;4.60;99.90;;;;;;5111151;28;20387;-57
2020/12/07 04:05:43;;;;;;;1.70;0.60;;;4.60;99.90;;;;;;5111299;28;20039;-58
2020/12/07 04:08:50;;;;;;;3.28;0.73;;;4.70;99.90;;;;;;5111080;28;20040;-59
2020/12/07 04:11:54;;;;;;;1.42;0.65;;;4.60;99.90;;;;;;5111694;28;20039;-55
2020/12/07 04:14:58;;;;;;;0.82;0.50;;;4.50;99.90;;;;;;5112166;28;20410;-53
2020/12/07 04:18:01;;;;;;;1.27;0.68;;;4.50;99.90;;;;;;5110330;28;20032;-56
2020/12/07 04:21:06;;;;;;;1.35;0.80;;;4.50;99.90;;;;;;5111300;27;20044;-54
2020/12/07 04:24:11;;;;;;;2.85;0.60;;;4.50;99.90;;;;;;5111224;28;20036;-59
2020/12/07 04:27:15;;;;;;;2.75;1.10;;;4.50;99.90;;;;;;5119954;27;20027;-53
2020/12/07 04:30:19;;;;;;;1.58;1.10;;;4.40;99.90;;;;;;5112291;27;20391;-55
2020/12/07 04:33:22;;;;;;;2.30;1.38;;;4.40;99.90;;;;;;5111463;28;20043;-53
2020/12/07 04:36:27;;;;;;;2.53;0.60;;;4.40;99.90;;;;;;5111694;28;20031;-53
2020/12/07 04:39:31;;;;;;;0.88;0.65;;;4.50;99.90;;;;;;5111080;28;20032;-54
2020/12/07 04:42:39;;;;;;;1.60;1.13;;;4.60;99.90;;;;;;5111446;28;20043;-54
2020/12/07 04:45:43;;;;;;;1.20;0.80;;;4.60;99.90;;;;;;5111771;28;20031;-55
2020/12/07 04:48:52;;;;;;;1.30;1.20;;;4.60;99.90;;;;;;5111316;28;20482;-54
2020/12/07 04:51:58;;;;;;;1.48;1.00;;;4.60;99.90;;;;;;5125804;27;20047;-57
2020/12/07 04:55:05;;;;;;;1.48;0.90;;;4.50;99.90;;;;;;5111565;28;20399;-55
2020/12/07 04:58:12;;;;;;;1.50;1.10;;;4.40;99.90;;;;;;5111974;28;20035;-52
2020/12/07 05:01:16;;;;;;;3.70;1.30;;;4.30;99.90;;;;;;5111360;28;20094;-53
2020/12/07 05:04:20;;;;;;;1.88;1.30;;;4.30;99.90;;;;;;5111539;28;20035;-54
2020/12/07 05:07:25;;;;;;;6.50;1.30;;;4.20;99.90;;;;;;5111374;28;20043;-56
2020/12/07 05:10:43;;;;;;;2.92;1.40;;;4.20;99.90;;;;;;5112771;27;20387;-56
2020/12/07 05:13:52;;;;;;;2.47;1.42;;;4.10;99.90;;;;;;5128482;27;20461;-57
2020/12/07 05:16:56;;;;;;;5.18;4.60;;;4.10;99.90;;;;;;5127612;27;20039;-52
2020/12/07 05:20:00;;;;;;;5.72;2.58;;;4.20;99.90;;;;;;5130687;27;20043;-54
2020/12/07 05:23:04;;;;;;;1.55;1.10;;;4.20;99.90;;;;;;5130070;27;20232;-53
2020/12/07 05:26:10;;;;;;;1.73;1.20;;;4.10;99.90;;;;;;5130998;27;20039;-55
2020/12/07 05:29:24;;;;;;;4.32;1.30;;;4.10;99.90;;;;;;5126443;27;20027;-56
2020/12/07 05:32:33;;;;;;;2.00;1.45;;;4.10;99.90;;;;;;5129220;27;20035;-54
2020/12/07 05:35:38;;;;;;;3.10;1.35;;;4.10;99.90;;;;;;5127632;27;20371;-52
2020/12/07 05:38:44;;;;;;;2.47;1.50;;;4.10;99.90;;;;;;5124822;27;20555;-54
2020/12/07 05:41:49;;;;;;;2.22;1.30;;;4.10;99.90;;;;;;5125609;27;20031;-55
2020/12/07 05:44:56;;;;;;;2.25;1.70;;;4.10;99.90;;;;;;5117246;27;20031;-53
2020/12/07 05:48:02;;;;;;;1.92;1.48;;;4.00;99.90;;;;;;5116772;27;20043;-55
2020/12/07 05:51:09;;;;;;;4.60;1.92;;;4.00;99.90;;;;;;5109421;28;20035;-56
2020/12/07 05:54:14;;;;;;;4.60;2.10;;;4.00;99.90;;;;;;5109993;28;20047;-57
2020/12/07 05:57:21;;;;;;;2.67;2.10;;;4.00;99.90;;;;;;5112190;27;20036;-55
2020/12/07 06:00:25;;;;;;;3.08;2.10;;;4.00;99.90;;;;;;5122589;27;20040;-52
2020/12/07 06:03:30;;;;;;;4.03;2.58;;;4.00;99.90;;;;;;5117381;27;20383;-54
2020/12/07 06:06:35;;;;;;;7.35;3.22;;;4.00;99.90;;;;;;5112818;27;20432;-56
2020/12/07 06:09:42;;;;;;;5.80;3.60;;;4.00;99.90;;;;;;5113641;27;20052;-55
2020/12/07 06:12:52;;;;;;;3.78;3.00;;;3.90;99.90;;;;;;5114925;27;20036;-54
2020/12/07 06:15:59;;;;;;;19.60;3.95;;;4.00;99.90;;;;;;5116277;27;20039;-53
2020/12/07 06:19:14;;;;;;;20.42;4.60;;;4.00;99.90;;;;;;5119891;27;20125;-53
2020/12/07 06:22:21;;;;;;;6.28;3.90;;;4.00;99.90;;;;;;5112396;27;20050;-53
2020/12/07 06:25:27;;;;;;;6.88;4.35;;;3.90;99.90;;;;;;5114260;28;20023;-56
2020/12/07 06:28:37;;;;;;;8.02;3.65;;;3.80;99.90;;;;;;5114632;28;20370;-53
2020/12/07 06:31:44;;;;;;;7.00;4.85;;;3.70;99.90;;;;;;5112209;28;20047;-56
2020/12/07 06:34:57;;;;;;;9.43;4.93;;;3.50;99.90;;;;;;5115508;28;20040;-52
2020/12/07 06:38:02;;;;;;;7.25;5.15;;;3.50;99.90;;;;;;5121782;28;20039;-55
2020/12/07 06:41:07;;;;;;;10.35;6.55;;;3.40;99.90;;;;;;5108654;28;20520;-54
2020/12/07 06:44:14;;;;;;;10.43;7.78;;;3.40;99.90;;;;;;5113046;27;20035;-56
2020/12/07 06:47:25;;;;;;;14.13;7.20;;;3.50;99.90;;;;;;5112979;27;20394;-55
2020/12/07 06:50:31;;;;;;;10.98;7.18;;;3.50;99.90;;;;;;5113041;27;20058;-53
2020/12/07 06:53:43;;;;;;;15.35;9.63;;;3.50;99.90;;;;;;5117328;27;20046;-56
2020/12/07 06:56:47;;;;;;;;;;;3.40;99.90;;;;;;5117726;27;20043;-52
2020/12/07 07:00:07;;;;;;;10.63;7.63;;;3.40;99.90;;;;;;5119516;27;19919;-52
2020/12/07 07:03:12;;;;;;;14.43;8.30;;;3.40;99.90;;;;;;5123519;27;20109;-53
2020/12/07 07:06:21;;;;;;;16.00;10.35;;;3.40;99.90;;;;;;5121059;27;20042;-55
2020/12/07 07:09:25;;;;;;;17.27;10.05;;;3.40;99.90;;;;;;5125075;27;20050;-56
2020/12/07 07:12:29;;;;;;;23.48;14.27;;;3.60;99.90;;;;;;5121553;27;20397;-57
2020/12/07 07:15:34;;;;;;;27.80;16.42;;;3.90;99.90;;;;;;5121620;27;20838;-55
2020/12/07 07:18:42;;;;;;;65.40;38.60;;;4.00;99.90;;;;;;5122879;27;20038;-55
2020/12/07 07:21:50;;;;;;;46.55;26.88;;;4.10;99.90;;;;;;5119872;27;20050;-58
2020/12/07 07:25:21;;;;;;;50.13;32.20;;;4.10;99.90;;;;;;5131471;27;20401;-54
2020/12/07 07:28:25;;;;;;;33.75;19.60;;;4.20;99.90;;;;;;5126522;27;20043;-52
2020/12/07 07:31:30;;;;;;;27.52;18.27;;;5.60;99.90;;;;;;5128531;27;20050;-56
2020/12/07 07:34:34;;;;;;;11.43;8.55;;;7.20;99.90;;;;;;5132465;27;20113;-54
2020/12/07 07:37:40;;;;;;;8.77;5.18;;;8.10;99.90;;;;;;5113846;27;20046;-52
2020/12/07 07:40:44;;;;;;;4.55;3.10;;;9.10;99.90;;;;;;5120728;27;20631;-54
2020/12/07 07:43:48;;;;;;;4.47;2.78;;;10.50;99.90;;;;;;5122577;27;20031;-56
2020/12/07 07:46:53;;;;;;;4.57;2.90;;;11.30;99.90;;;;;;5114413;27;20042;-56
2020/12/07 08:17:18;;;;;;;3.45;2.53;;;15.40;99.90;;;;;;5101537;27;20055;-53
2020/12/07 08:20:28;;;;;;;5.40;2.30;;;15.00;99.90;;;;;;5116557;27;20047;-56
2020/12/07 08:23:33;;;;;;;3.20;2.13;;;15.60;99.90;;;;;;5116827;27;20655;-56
2020/12/07 08:26:42;;;;;;;3.67;2.45;;;15.10;99.90;;;;;;5118640;27;20035;-54
2020/12/07 08:29:47;;;;;;;3.42;2.60;;;13.40;99.90;;;;;;5117940;27;20071;-55
2020/12/07 08:32:51;;;;;;;3.08;2.40;;;12.20;99.90;;;;;;5115685;27;20047;-54
2020/12/07 08:35:57;;;;;;;6.03;2.70;;;11.90;99.90;;;;;;5112480;27;20047;-52
2020/12/07 08:39:02;;;;;;;5.43;2.60;;;12.80;99.90;;;;;;5110888;27;20449;-53
2020/12/07 08:42:07;;;;;;;4.88;2.58;;;12.70;99.90;;;;;;5110243;28;20043;-52
2020/12/07 08:45:11;;;;;;;4.05;2.60;;;12.90;99.90;;;;;;5111471;28;20050;-54
2020/12/07 08:48:15;;;;;;;5.45;3.08;;;13.40;99.90;;;;;;5111198;28;20050;-55
2020/12/07 08:51:21;;;;;;;5.07;2.90;;;13.60;99.90;;;;;;5110075;28;20042;-55
2020/12/07 08:54:25;;;;;;;4.80;3.28;;;14.30;99.90;;;;;;5117515;27;20058;-52
2020/12/07 08:57:29;;;;;;;7.35;4.05;;;12.20;99.90;;;;;;5119013;27;20402;-53
2020/12/07 09:00:34;;;;;;;7.35;5.13;;;11.90;99.90;;;;;;5122775;27;20049;-52
2020/12/07 09:03:44;;;;;;;10.55;5.88;;;12.80;99.90;;;;;;5110024;27;20055;-57
2020/12/07 09:06:52;;;;;;;8.30;5.38;;;14.60;99.90;;;;;;5110852;28;20059;-55
2020/12/07 09:09:56;;;;;;;5.55;3.05;;;16.00;99.90;;;;;;5109402;28;20047;-57
2020/12/07 09:13:01;;;;;;;7.45;3.42;;;14.30;99.90;;;;;;5110312;28;20529;-55
2020/12/07 09:16:06;;;;;;;4.30;2.83;;;15.80;99.90;;;;;;5110363;27;20046;-55
2020/12/07 09:19:11;;;;;;;4.50;2.92;;;15.40;99.90;;;;;;5110308;28;20050;-55
2020/12/07 09:22:15;;;;;;;4.35;3.20;;;13.90;99.90;;;;;;5116302;27;20512;-57
2020/12/07 09:25:19;;;;;;;4.93;3.13;;;13.10;99.90;;;;;;5121663;27;20050;-57
2020/12/07 09:28:23;;;;;;;4.25;2.60;;;13.90;99.90;;;;;;5130544;27;20065;-58
2020/12/07 09:31:27;;;;;;;6.78;3.15;;;15.60;99.90;;;;;;5120869;27;20034;-55
2020/12/07 09:34:31;;;;;;;6.32;2.58;;;17.10;99.90;;;;;;5114712;27;20046;-58
2020/12/07 09:37:36;;;;;;;6.72;1.67;;;15.10;99.90;;;;;;5118228;27;20046;-56
2020/12/07 09:40:42;;;;;;;6.50;1.45;;;14.50;99.90;;;;;;5121004;27;20050;-58
2020/12/07 09:43:46;;;;;;;8.60;2.20;;;13.40;99.90;;;;;;5115887;27;20055;-58
2020/12/07 09:46:52;;;;;;;5.45;3.05;;;14.00;99.90;;;;;;5120633;27;20035;-56
2020/12/07 09:49:57;;;;;;;2.88;1.50;;;14.30;99.90;;;;;;5117489;27;20050;-58
2020/12/07 09:53:03;;;;;;;6.88;1.42;;;12.70;99.90;;;;;;5114327;27;20038;-56
2020/12/07 09:56:07;;;;;;;3.97;1.70;;;13.60;99.90;;;;;;5117703;27;20042;-58
2020/12/07 09:59:11;;;;;;;4.60;1.88;;;12.10;99.90;;;;;;5118093;27;20046;-58
2020/12/07 10:02:16;;;;;;;5.18;1.77;;;12.70;99.90;;;;;;5120771;27;20050;-56
2020/12/07 10:05:20;;;;;;;5.07;1.65;;;15.90;99.90;;;;;;5122123;27;20046;-57
2020/12/07 10:08:25;;;;;;;4.75;1.42;;;15.20;99.90;;;;;;5125382;27;20037;-56
2020/12/07 10:11:29;;;;;;;3.33;1.73;;;14.30;99.90;;;;;;5116654;27;20046;-56
2020/12/07 10:14:34;;;;;;;10.98;1.92;;;14.80;99.90;;;;;;5116821;27;20046;-55
2020/12/07 10:17:38;;;;;;;8.15;2.00;;;13.60;99.90;;;;;;5107642;28;20393;-57
2020/12/07 10:20:42;;;;;;;3.85;1.02;;;13.20;99.90;;;;;;5116824;27;20054;-57
2020/12/07 10:23:46;;;;;;;3.55;1.30;;;12.00;99.90;;;;;;5112286;27;20070;-54
2020/12/07 10:26:51;;;;;;;4.10;1.13;;;14.00;99.90;;;;;;5109343;28;20405;-53
2020/12/07 10:29:55;;;;;;;4.28;1.27;;;16.50;99.90;;;;;;5112469;28;20504;-53
2020/12/07 10:32:59;;;;;;;2.47;1.20;;;15.60;99.90;;;;;;5113415;28;20038;-51
2020/12/07 10:36:03;;;;;;;3.75;1.33;;;13.70;99.90;;;;;;5122455;28;20046;-53
2020/12/07 10:39:07;;;;;;;5.53;1.95;;;12.90;99.90;;;;;;5115331;28;20034;-57
2020/12/07 10:42:11;;;;;;;7.15;1.40;;;12.50;99.90;;;;;;5109506;28;20035;-56
2020/12/07 10:45:16;;;;;;;5.40;1.52;;;12.70;99.90;;;;;;5109056;28;20039;-52
2020/12/07 10:48:20;;;;;;;6.63;1.50;;;12.00;99.90;;;;;;5109131;28;20050;-53
2020/12/07 10:51:24;;;;;;;7.57;1.42;;;12.20;99.90;;;;;;5109730;28;20051;-55
2020/12/07 10:54:28;;;;;;;5.68;2.03;;;11.90;99.90;;;;;;5109683;28;20058;-57
2020/12/07 10:57:32;;;;;;;4.47;1.90;;;11.00;99.90;;;;;;5109917;28;20054;-53
2020/12/07 11:00:39;;;;;;;9.45;1.77;;;12.10;99.90;;;;;;5109520;28;20050;-55
2020/12/07 11:03:45;;;;;;;6.93;1.50;;;12.00;99.90;;;;;;5109114;28;20038;-52
2020/12/07 11:06:51;;;;;;;2.40;1.10;;;11.90;99.90;;;;;;5109822;28;20043;-53
2020/12/07 11:09:56;;;;;;;5.78;1.65;;;13.40;99.90;;;;;;5118136;28;20042;-53
2020/12/07 11:13:05;;;;;;;7.07;1.40;;;16.00;99.90;;;;;;5109710;28;20504;-53
2020/12/07 11:16:13;;;;;;;5.07;1.38;;;16.60;99.90;;;;;;5113365;28;20039;-54
2020/12/07 11:19:18;;;;;;;7.28;1.42;;;17.60;99.90;;;;;;5109534;28;20042;-53
2020/12/07 11:22:22;;;;;;;5.10;1.38;;;18.30;99.90;;;;;;5109226;28;20054;-56
2020/12/07 11:25:26;;;;;;;6.28;1.13;;;18.20;99.90;;;;;;5108960;28;20050;-53
2020/12/07 11:28:30;;;;;;;2.33;1.30;;;18.30;99.40;;;;;;5112058;28;20406;-55
2020/12/07 11:31:34;;;;;;;4.47;1.45;;;15.50;99.90;;;;;;5112870;28;20046;-53
2020/12/07 11:34:38;;;;;;;6.07;1.30;;;16.20;99.90;;;;;;5112722;28;20051;-52
2020/12/07 11:37:43;;;;;;;9.93;2.50;;;18.40;99.90;;;;;;5113095;28;20516;-54
2020/12/07 11:40:58;;;;;;;7.57;1.50;;;16.50;99.90;;;;;;5112178;27;20505;-54
2020/12/07 11:44:10;;;;;;;5.45;1.35;;;19.00;99.40;;;;;;5112477;28;20062;-54
2020/12/07 11:47:14;;;;;;;2.10;1.10;;;18.90;99.30;;;;;;5112731;28;20616;-56
2020/12/07 11:50:19;;;;;;;4.68;1.70;;;16.90;99.90;;;;;;5112195;27;20039;-51
2020/12/07 11:53:23;;;;;;;4.22;1.40;;;14.70;99.90;;;;;;5112130;28;20410;-52
2020/12/07 11:56:32;;;;;;;4.68;1.33;;;14.40;99.90;;;;;;5111917;28;20042;-51
2020/12/07 11:59:38;;;;;;;8.02;1.77;;;13.20;99.90;;;;;;5112124;28;20042;-51
2020/12/07 12:02:42;;;;;;;5.55;2.10;;;12.10;99.90;;;;;;5112124;28;20046;-54
2020/12/07 12:05:46;;;;;;;8.60;1.60;;;11.60;99.90;;;;;;5111553;28;20043;-53
2020/12/07 12:08:51;;;;;;;9.25;2.25;;;11.40;99.90;;;;;;5112909;27;20038;-51
2020/12/07 12:11:55;;;;;;;8.75;2.15;;;11.40;99.90;;;;;;5111482;28;20413;-55
2020/12/07 12:14:59;;;;;;;10.80;2.72;;;11.50;99.90;;;;;;5111520;28;20050;-53
2020/12/07 12:18:04;;;;;;;7.43;1.92;;;11.40;99.90;;;;;;5111995;28;20056;-56
2020/12/07 12:21:08;;;;;;;5.47;1.70;;;11.10;99.90;;;;;;5110791;27;20050;-51
2020/12/07 12:24:13;;;;;;;8.10;1.80;;;11.20;99.90;;;;;;5112508;27;20050;-51
2020/12/07 12:27:18;;;;;;;8.25;2.15;;;11.20;99.90;;;;;;5111385;28;20035;-51
2020/12/07 12:30:22;;;;;;;10.18;3.33;;;11.20;99.90;;;;;;5120209;27;20038;-54
2020/12/07 12:33:26;;;;;;;10.90;2.90;;;11.30;99.90;;;;;;5110875;28;20514;-53
2020/12/07 12:36:30;;;;;;;7.22;2.20;;;11.30;99.90;;;;;;5110976;28;20047;-51
2020/12/07 12:39:35;;;;;;;7.63;1.85;;;11.40;99.90;;;;;;5110512;28;20043;-51
2020/12/07 12:42:39;;;;;;;5.03;2.50;;;11.10;99.90;;;;;;5129028;27;20046;-52
2020/12/07 12:45:43;;;;;;;10.35;2.38;;;11.10;99.90;;;;;;5126537;27;20054;-56
2020/12/07 12:48:47;;;;;;;9.20;2.17;;;10.90;99.90;;;;;;5114794;27;20043;-54
2020/12/07 12:51:51;;;;;;;6.03;1.10;;;10.80;99.90;;;;;;5124469;27;20062;-51
2020/12/07 12:54:55;;;;;;;9.45;2.47;;;10.60;99.90;;;;;;5112751;27;20046;-51
2020/12/07 12:57:59;;;;;;;6.72;1.73;;;10.50;99.90;;;;;;5116721;27;20599;-53
2020/12/07 13:01:04;;;;;;;7.68;1.52;;;10.50;99.90;;;;;;5114704;27;20042;-53
2020/12/07 13:04:08;;;;;;;6.32;1.80;;;10.50;99.90;;;;;;5123147;27;20397;-56
2020/12/07 13:07:12;;;;;;;2.72;1.13;;;10.40;99.90;;;;;;5117617;27;20034;-52
2020/12/07 13:10:16;;;;;;;5.38;1.60;;;10.50;99.90;;;;;;5117099;27;20050;-50
2020/12/07 13:13:21;;;;;;;3.30;1.52;;;10.40;99.90;;;;;;5119154;27;20039;-56
2020/12/07 13:16:29;;;;;;;10.15;1.83;;;10.20;99.90;;;;;;5128373;27;20035;-53
2020/12/07 13:19:33;;;;;;;10.55;2.00;;;10.20;99.90;;;;;;5121079;27;20504;-51
2020/12/07 13:25:57;;;;;;;6.25;1.55;;;10.70;99.90;;;;;;5120142;27;20054;-54
2020/12/07 13:29:01;;;;;;;3.38;1.40;;;10.60;99.90;;;;;;5124427;27;20038;-51
2020/12/07 13:32:05;;;;;;;6.68;1.80;;;10.70;99.90;;;;;;5110366;28;20386;-55
2020/12/07 13:35:09;;;;;;;9.65;2.50;;;10.60;99.90;;;;;;5110830;27;20054;-53
2020/12/07 13:38:13;;;;;;;9.25;1.75;;;10.60;99.90;;;;;;5122156;27;20509;-51
2020/12/07 13:41:17;;;;;;;12.55;5.13;;;10.60;99.90;;;;;;5123502;27;20409;-53
2020/12/07 13:44:22;;;;;;;19.83;7.85;;;10.30;99.90;;;;;;5118199;27;20050;-51
2020/12/07 13:47:26;;;;;;;16.95;6.55;;;10.30;99.90;;;;;;5108892;28;20043;-52
2020/12/07 13:50:31;;;;;;;11.05;2.85;;;10.40;99.90;;;;;;5108827;28;20046;-53
2020/12/07 13:53:35;;;;;;;14.18;3.78;;;10.10;99.90;;;;;;5111755;27;20046;-52
2020/12/07 13:56:43;;;;;;;6.82;2.50;;;10.00;99.90;;;;;;5113413;27;20038;-54
2020/12/07 13:59:47;;;;;;;8.68;2.95;;;10.10;99.90;;;;;;5113266;27;20109;-52
2020/12/07 14:02:51;;;;;;;9.85;1.90;;;10.00;99.90;;;;;;5118699;27;20039;-51
2020/12/07 14:05:56;;;;;;;8.27;2.35;;;10.00;99.90;;;;;;5111026;27;20508;-52
2020/12/07 14:09:03;;;;;;;10.43;4.40;;;10.00;99.90;;;;;;5111786;27;20513;-53
2020/12/07 14:12:07;;;;;;;12.70;4.60;;;9.90;99.90;;;;;;5116036;27;20062;-51
2020/12/07 14:15:12;;;;;;;8.65;2.88;;;9.90;99.90;;;;;;5113271;27;20043;-51
2020/12/07 14:18:18;;;;;;;10.38;1.77;;;9.80;99.90;;;;;;5112563;27;20040;-52
2020/12/07 14:24:58;;;;;;;6.85;1.30;;;9.80;99.90;;;;;;5109632;28;20035;-51
2020/12/07 14:28:30;;;;;;;8.70;1.00;;;9.80;99.90;;;;;;5115096;27;20382;-51
2020/12/07 14:41:44;;;;;;;4.20;1.55;;;9.90;99.90;;;;;;5113222;28;20036;-52
2020/12/07 14:44:50;;;;;;;5.97;2.03;;;9.80;99.90;;;;;;5110317;28;20478;-56
2020/12/07 14:47:59;;;;;;;5.38;1.73;;;9.70;99.90;;;;;;5117169;28;20769;-51
2020/12/07 14:51:18;;;;;;;3.60;1.17;;;9.70;99.90;;;;;;5112904;28;20035;-53
2020/12/07 14:54:27;;;;;;;3.80;1.40;;;9.70;99.90;;;;;;5116110;28;20504;-57
2020/12/07 14:57:43;;;;;;;5.07;1.00;;;9.50;99.90;;;;;;5120878;28;20059;-53
2020/12/07 15:14:10;;;;;;;9.63;2.40;;;9.50;99.90;;;;;;5129240;27;20388;-53
2020/12/07 15:17:07;;;;;;;5.82;2.83;;;9.50;99.90;;;;;;5130657;27;20052;-54
2020/12/07 15:20:11;;;;;;;11.43;5.55;;;9.60;99.90;;;;;;5128349;27;20035;-56
2020/12/07 15:23:15;;;;;;;8.98;4.03;;;9.80;99.90;;;;;;5127357;27;20066;-51
2020/12/07 15:26:20;;;;;;;8.52;4.30;;;9.90;99.90;;;;;;5126147;27;20032;-53
2020/12/07 15:29:24;;;;;;;8.68;2.40;;;9.70;99.90;;;;;;5123403;27;20035;-51
2020/12/07 15:32:28;;;;;;;11.07;3.05;;;9.60;99.90;;;;;;5124335;27;20493;-52
2020/12/07 15:35:33;;;;;;;14.70;4.15;;;9.40;99.90;;;;;;5125753;27;20050;-52
2020/12/07 15:38:40;;;;;;;9.57;3.40;;;9.20;99.90;;;;;;5111692;28;20042;-52
2020/12/07 15:41:44;;;;;;;6.45;3.78;;;9.00;99.90;;;;;;5111610;28;20032;-53
2020/12/07 15:44:48;;;;;;;16.83;10.43;;;8.90;99.90;;;;;;5112772;28;20043;-55
2020/12/07 15:47:52;;;;;;;14.05;9.65;;;8.80;99.90;;;;;;5112676;27;20039;-51
2020/12/07 15:50:56;;;;;;;12.70;8.13;;;8.80;99.90;;;;;;5112297;28;20046;-51
2020/12/07 15:54:00;;;;;;;15.60;8.68;;;8.80;99.90;;;;;;5112558;28;20039;-51
2020/12/07 15:57:04;;;;;;;11.07;4.32;;;8.80;99.90;;;;;;5111670;28;20047;-52
2020/12/07 16:00:09;;;;;;;8.25;3.00;;;8.80;99.90;;;;;;5111647;27;20035;-51
2020/12/07 16:03:13;;;;;;;7.57;3.25;;;8.80;99.90;;;;;;5112250;28;20047;-51
2020/12/07 16:06:17;;;;;;;13.38;4.60;;;8.80;99.90;;;;;;5130837;27;20039;-51
2020/12/07 16:09:22;;;;;;;13.43;7.07;;;8.80;99.90;;;;;;5122371;27;20038;-53
2020/12/07 16:12:26;;;;;;;8.80;5.38;;;8.70;99.90;;;;;;5123515;27;20055;-51
2020/12/07 16:15:29;;;;;;;6.25;2.25;;;8.60;99.90;;;;;;5118683;27;20043;-51
2020/12/07 16:18:34;;;;;;;5.00;2.15;;;8.50;99.90;;;;;;5126190;27;20031;-50
2020/12/07 16:21:38;;;;;;;11.98;6.65;;;8.40;99.90;;;;;;5111439;28;20035;-51
2020/12/07 16:24:44;;;;;;;3.67;1.48;;;8.30;99.90;;;;;;5112368;28;20054;-52
2020/12/07 16:27:48;;;;;;;7.47;4.25;;;8.20;99.90;;;;;;5111618;28;20032;-51
2020/12/07 16:30:53;;;;;;;4.03;1.50;;;8.10;99.90;;;;;;5111780;28;20020;-51
2020/12/07 16:33:57;;;;;;;6.47;2.42;;;8.10;99.90;;;;;;5111636;28;20031;-51
2020/12/07 16:37:01;;;;;;;5.43;1.33;;;8.00;99.90;;;;;;5112321;27;20035;-53
2020/12/07 16:40:05;;;;;;;6.70;1.42;;;7.90;99.90;;;;;;5118666;27;20036;-54
2020/12/07 16:43:10;;;;;;;6.57;2.30;;;7.90;99.90;;;;;;5121239;27;20035;-51
2020/12/07 16:46:18;;;;;;;10.68;5.13;;;7.90;99.90;;;;;;5125068;27;20502;-52
2020/12/07 16:49:22;;;;;;;4.88;2.25;;;7.90;99.90;;;;;;5111396;28;20039;-52
2020/12/07 16:52:26;;;;;;;4.00;1.40;;;7.90;99.90;;;;;;5111547;28;20387;-53
2020/12/07 16:55:30;;;;;;;5.85;2.97;;;7.90;99.90;;;;;;5111872;28;20040;-54
2020/12/07 16:58:35;;;;;;;5.18;2.20;;;7.90;99.90;;;;;;5111573;28;20040;-52
2020/12/07 17:01:40;;;;;;;5.43;2.95;;;8.00;99.90;;;;;;5111498;28;20043;-53
2020/12/07 17:04:44;;;;;;;6.10;2.30;;;8.00;99.90;;;;;;5111587;28;20032;-50
2020/12/07 17:07:49;;;;;;;5.45;2.08;;;8.00;99.90;;;;;;5111191;28;20047;-53
2020/12/07 17:10:53;;;;;;;5.00;1.13;;;7.90;99.90;;;;;;5111391;28;20043;-53
2020/12/07 17:13:57;;;;;;;6.85;2.38;;;7.80;99.90;;;;;;5111259;28;20036;-55